EWG4MR LKPR-EDDK
Flight info
| Callsign | EWG4MR |
|---|---|
| Flight time | 0h 52m |
| Altitude | 32000 |
| Route | BALTU DCT DONAD DCT RAPET T843 DEMAB T842 EBANA T841 ERNEP ERNEP2C |
| Aircraft | B738/M-SDE2E3FGHIRWXY/LB1 |
Departure
| Time | 2026-04-22 18:03 |
|---|---|
| Airport | Václav Havel Airport Prague (LKPR) |
Arrival
| Time | 2026-04-22 18:55 |
|---|---|
| Airport | Cologne Bonn Airport (EDDK) |
| Time | Latitude | Longitude | Altitude | Speed | Heading |
|---|---|---|---|---|---|
| 2026-04-22 17:26 | 50.10701 | 14.26380 | 1181 ft | 0 kts | 213° |
| 2026-04-22 17:48 | 50.10702 | 14.26381 | 1181 ft | 1 kts | 213° |
| 2026-04-22 17:49 | 50.10714 | 14.26394 | 1180 ft | 2 kts | 213° |
| 2026-04-22 17:49 | 50.10726 | 14.26407 | 1180 ft | 2 kts | 213° |
| 2026-04-22 17:49 | 50.10739 | 14.26419 | 1180 ft | 2 kts | 213° |
| 2026-04-22 17:49 | 50.10751 | 14.26434 | 1180 ft | 2 kts | 232° |
| 2026-04-22 17:50 | 50.10759 | 14.26454 | 1180 ft | 2 kts | 252° |
| 2026-04-22 17:50 | 50.10760 | 14.26477 | 1180 ft | 2 kts | 275° |
| 2026-04-22 17:50 | 50.10757 | 14.26500 | 1180 ft | 2 kts | 296° |
| 2026-04-22 17:50 | 50.10753 | 14.26510 | 1181 ft | 1 kts | 307° |
| 2026-04-22 17:51 | 50.10751 | 14.26514 | 1181 ft | 0 kts | 304° |
| 2026-04-22 17:54 | 50.10751 | 14.26513 | 1181 ft | 0 kts | 304° |
| 2026-04-22 17:54 | 50.10774 | 14.26460 | 1180 ft | 9 kts | 303° |
| 2026-04-22 17:55 | 50.10801 | 14.26399 | 1178 ft | 10 kts | 304° |
| 2026-04-22 17:55 | 50.10838 | 14.26263 | 1177 ft | 10 kts | 282° |
| 2026-04-22 17:55 | 50.10872 | 14.26163 | 1175 ft | 10 kts | 304° |
| 2026-04-22 17:55 | 50.10859 | 14.26063 | 1175 ft | 10 kts | 221° |
| 2026-04-22 17:56 | 50.10808 | 14.26008 | 1176 ft | 8 kts | 214° |
| 2026-04-22 17:56 | 50.10755 | 14.25948 | 1177 ft | 10 kts | 216° |
| 2026-04-22 17:56 | 50.10701 | 14.25889 | 1179 ft | 8 kts | 214° |
| 2026-04-22 17:56 | 50.10651 | 14.25835 | 1180 ft | 9 kts | 215° |
| 2026-04-22 17:57 | 50.10591 | 14.25792 | 1181 ft | 8 kts | 168° |
| 2026-04-22 17:57 | 50.10553 | 14.25862 | 1182 ft | 11 kts | 122° |
| 2026-04-22 17:57 | 50.10488 | 14.26004 | 1185 ft | 18 kts | 126° |
| 2026-04-22 17:57 | 50.10415 | 14.26155 | 1189 ft | 15 kts | 127° |
| 2026-04-22 17:58 | 50.10356 | 14.26277 | 1192 ft | 12 kts | 127° |
| 2026-04-22 17:58 | 50.10301 | 14.26391 | 1196 ft | 16 kts | 127° |
| 2026-04-22 17:58 | 50.10221 | 14.26555 | 1199 ft | 18 kts | 127° |
| 2026-04-22 17:58 | 50.10140 | 14.26719 | 1203 ft | 19 kts | 127° |
| 2026-04-22 17:59 | 50.10064 | 14.26878 | 1205 ft | 17 kts | 126° |
| 2026-04-22 17:59 | 50.09997 | 14.27021 | 1207 ft | 17 kts | 126° |
| 2026-04-22 17:59 | 50.09917 | 14.27186 | 1207 ft | 19 kts | 126° |
| 2026-04-22 17:59 | 50.09836 | 14.27341 | 1208 ft | 17 kts | 134° |
| 2026-04-22 18:00 | 50.09780 | 14.27426 | 1209 ft | 16 kts | 135° |
| 2026-04-22 18:00 | 50.09656 | 14.27615 | 1211 ft | 20 kts | 135° |
| 2026-04-22 18:00 | 50.09554 | 14.27773 | 1214 ft | 20 kts | 135° |
| 2026-04-22 18:00 | 50.09461 | 14.27917 | 1217 ft | 17 kts | 135° |
| 2026-04-22 18:01 | 50.09380 | 14.28041 | 1220 ft | 14 kts | 135° |
| 2026-04-22 18:01 | 50.09311 | 14.28147 | 1223 ft | 15 kts | 135° |
| 2026-04-22 18:01 | 50.09234 | 14.28261 | 1224 ft | 14 kts | 146° |
| 2026-04-22 18:01 | 50.09151 | 14.28260 | 1227 ft | 10 kts | 211° |
| 2026-04-22 18:02 | 50.09096 | 14.28199 | 1229 ft | 10 kts | 216° |
| 2026-04-22 18:02 | 50.09077 | 14.28114 | 1229 ft | 8 kts | 288° |
| 2026-04-22 18:02 | 50.09102 | 14.28054 | 1229 ft | 0 kts | 307° |
| 2026-04-22 18:02 | 50.09160 | 14.27935 | 1227 ft | 43 kts | 306° |
| 2026-04-22 18:03 | 50.09502 | 14.27229 | 1221 ft | 118 kts | 307° |
| 2026-04-22 18:03 | 50.10125 | 14.25939 | 1218 ft | 177 kts | 308° |
| 2026-04-22 18:03 | 50.10843 | 14.24438 | 2152 ft | 168 kts | 308° |
| 2026-04-22 18:03 | 50.11529 | 14.23020 | 2973 ft | 170 kts | 310° |
| 2026-04-22 18:04 | 50.12250 | 14.21541 | 3549 ft | 177 kts | 310° |
| 2026-04-22 18:04 | 50.13016 | 14.19965 | 4014 ft | 191 kts | 310° |
| 2026-04-22 18:04 | 50.13847 | 14.18248 | 4451 ft | 208 kts | 310° |
| 2026-04-22 18:04 | 50.14761 | 14.16356 | 4885 ft | 228 kts | 310° |
| 2026-04-22 18:05 | 50.15763 | 14.14282 | 5029 ft | 249 kts | 310° |
| 2026-04-22 18:05 | 50.16778 | 14.12025 | 5013 ft | 260 kts | 300° |
| 2026-04-22 18:05 | 50.17247 | 14.09259 | 5140 ft | 266 kts | 276° |
| 2026-04-22 18:05 | 50.17238 | 14.06399 | 5406 ft | 271 kts | 271° |
| 2026-04-22 18:06 | 50.17176 | 14.03289 | 5796 ft | 291 kts | 272° |
| 2026-04-22 18:06 | 50.17171 | 14.00031 | 6311 ft | 308 kts | 274° |
| 2026-04-22 18:06 | 50.17214 | 13.96651 | 6827 ft | 324 kts | 275° |
| 2026-04-22 18:06 | 50.17282 | 13.93014 | 7349 ft | 340 kts | 275° |
| 2026-04-22 18:07 | 50.17357 | 13.89292 | 7874 ft | 354 kts | 275° |
| 2026-04-22 18:07 | 50.17430 | 13.85416 | 8530 ft | 364 kts | 275° |
| 2026-04-22 18:07 | 50.17501 | 13.81431 | 9297 ft | 370 kts | 275° |
| 2026-04-22 18:07 | 50.17569 | 13.77365 | 10089 ft | 375 kts | 275° |
| 2026-04-22 18:08 | 50.17635 | 13.73261 | 10889 ft | 379 kts | 275° |
| 2026-04-22 18:08 | 50.17699 | 13.69150 | 11679 ft | 382 kts | 275° |
| 2026-04-22 18:08 | 50.17763 | 13.65037 | 12459 ft | 385 kts | 275° |
| 2026-04-22 18:08 | 50.17826 | 13.60869 | 13245 ft | 388 kts | 275° |
| 2026-04-22 18:09 | 50.17889 | 13.56628 | 13993 ft | 391 kts | 276° |
| 2026-04-22 18:09 | 50.17951 | 13.52400 | 14681 ft | 396 kts | 275° |
| 2026-04-22 18:09 | 50.18014 | 13.48059 | 15321 ft | 401 kts | 275° |
| 2026-04-22 18:09 | 50.18076 | 13.43683 | 15910 ft | 408 kts | 275° |
| 2026-04-22 18:10 | 50.18137 | 13.39256 | 16498 ft | 414 kts | 275° |
| 2026-04-22 18:10 | 50.18198 | 13.34713 | 17084 ft | 420 kts | 274° |
| 2026-04-22 18:10 | 50.18256 | 13.30160 | 17668 ft | 425 kts | 274° |
| 2026-04-22 18:10 | 50.18312 | 13.25577 | 18253 ft | 430 kts | 274° |
| 2026-04-22 18:11 | 50.18368 | 13.20843 | 18837 ft | 435 kts | 274° |
| 2026-04-22 18:11 | 50.18421 | 13.16197 | 19419 ft | 439 kts | 274° |
| 2026-04-22 18:11 | 50.18473 | 13.11478 | 20040 ft | 443 kts | 274° |
| 2026-04-22 18:11 | 50.18525 | 13.06553 | 20625 ft | 446 kts | 274° |
| 2026-04-22 18:12 | 50.18574 | 13.01718 | 21228 ft | 449 kts | 273° |
| 2026-04-22 18:12 | 50.18622 | 12.96841 | 21850 ft | 452 kts | 273° |
| 2026-04-22 18:12 | 50.18653 | 12.93581 | 22250 ft | 454 kts | 273° |
| 2026-04-22 18:12 | 50.18711 | 12.87051 | 23072 ft | 456 kts | 273° |
| 2026-04-22 18:13 | 50.18753 | 12.82048 | 23704 ft | 457 kts | 273° |
| 2026-04-22 18:13 | 50.18793 | 12.77118 | 24326 ft | 458 kts | 273° |
| 2026-04-22 18:13 | 50.18830 | 12.72141 | 24956 ft | 459 kts | 273° |
| 2026-04-22 18:13 | 50.18866 | 12.67188 | 25584 ft | 459 kts | 273° |
| 2026-04-22 18:14 | 50.18900 | 12.62177 | 26197 ft | 458 kts | 272° |
| 2026-04-22 18:14 | 50.18931 | 12.57260 | 26814 ft | 457 kts | 272° |
| 2026-04-22 18:14 | 50.18961 | 12.52331 | 27430 ft | 455 kts | 273° |
| 2026-04-22 18:14 | 50.19003 | 12.47396 | 27886 ft | 457 kts | 273° |
| 2026-04-22 18:15 | 50.19080 | 12.42444 | 28159 ft | 463 kts | 274° |
| 2026-04-22 18:15 | 50.19175 | 12.37343 | 28436 ft | 468 kts | 274° |
| 2026-04-22 18:15 | 50.19315 | 12.32331 | 28702 ft | 473 kts | 276° |
| 2026-04-22 18:15 | 50.19762 | 12.27195 | 28976 ft | 476 kts | 282° |
| 2026-04-22 18:16 | 50.20450 | 12.22180 | 29244 ft | 479 kts | 286° |
| 2026-04-22 18:16 | 50.21278 | 12.17096 | 29514 ft | 484 kts | 287° |
| 2026-04-22 18:16 | 50.22142 | 12.12045 | 29782 ft | 488 kts | 287° |
| 2026-04-22 18:16 | 50.22993 | 12.06870 | 30052 ft | 493 kts | 287° |
| 2026-04-22 18:17 | 50.23816 | 12.01690 | 30275 ft | 499 kts | 286° |
| 2026-04-22 18:17 | 50.25479 | 11.90983 | 30299 ft | 513 kts | 286° |
| 2026-04-22 18:18 | 50.27116 | 11.80314 | 30303 ft | 506 kts | 286° |
| 2026-04-22 18:18 | 50.28759 | 11.69601 | 30302 ft | 506 kts | 286° |
| 2026-04-22 18:19 | 50.30403 | 11.58882 | 30298 ft | 506 kts | 286° |
| 2026-04-22 18:19 | 50.32026 | 11.48269 | 30297 ft | 505 kts | 286° |
| 2026-04-22 18:19 | 50.32836 | 11.42946 | 30644 ft | 503 kts | 286° |
| 2026-04-22 18:20 | 50.33643 | 11.37635 | 31044 ft | 504 kts | 286° |
| 2026-04-22 18:20 | 50.34576 | 11.32331 | 31391 ft | 503 kts | 290° |
| 2026-04-22 18:20 | 50.35783 | 11.27294 | 31727 ft | 500 kts | 296° |
| 2026-04-22 18:20 | 50.37261 | 11.22454 | 32063 ft | 496 kts | 300° |
| 2026-04-22 18:21 | 50.38916 | 11.17642 | 32276 ft | 497 kts | 302° |
| 2026-04-22 18:21 | 50.42239 | 11.08259 | 32296 ft | 492 kts | 302° |
| 2026-04-22 18:22 | 50.45453 | 10.98827 | 32293 ft | 492 kts | 301° |
| 2026-04-22 18:22 | 50.48537 | 10.89323 | 32301 ft | 493 kts | 300° |
| 2026-04-22 18:23 | 50.51574 | 10.79645 | 32298 ft | 493 kts | 299° |
| 2026-04-22 18:23 | 50.54567 | 10.69948 | 31837 ft | 496 kts | 299° |
| 2026-04-22 18:24 | 50.57542 | 10.60221 | 30897 ft | 493 kts | 298° |
| 2026-04-22 18:24 | 50.59023 | 10.55364 | 30360 ft | 494 kts | 298° |
| 2026-04-22 18:24 | 50.61970 | 10.45664 | 29454 ft | 488 kts | 298° |
| 2026-04-22 18:25 | 50.63407 | 10.40924 | 29056 ft | 488 kts | 298° |
| 2026-04-22 18:25 | 50.64871 | 10.36085 | 28649 ft | 489 kts | 298° |
| 2026-04-22 18:25 | 50.66317 | 10.31301 | 28250 ft | 490 kts | 298° |
| 2026-04-22 18:26 | 50.69230 | 10.21638 | 27496 ft | 489 kts | 298° |
| 2026-04-22 18:26 | 50.70677 | 10.16820 | 27148 ft | 491 kts | 298° |
| 2026-04-22 18:26 | 50.72125 | 10.11996 | 26799 ft | 491 kts | 297° |
| 2026-04-22 18:26 | 50.73584 | 10.07120 | 26448 ft | 490 kts | 298° |
| 2026-04-22 18:27 | 50.75036 | 10.02257 | 26102 ft | 491 kts | 297° |
| 2026-04-22 18:27 | 50.76488 | 9.97387 | 25749 ft | 489 kts | 297° |
| 2026-04-22 18:27 | 50.77908 | 9.92610 | 25437 ft | 485 kts | 297° |
| 2026-04-22 18:27 | 50.79343 | 9.87776 | 25161 ft | 483 kts | 297° |
| 2026-04-22 18:28 | 50.80771 | 9.82952 | 24884 ft | 482 kts | 297° |
| 2026-04-22 18:28 | 50.82175 | 9.78201 | 24612 ft | 480 kts | 297° |
| 2026-04-22 18:28 | 50.83584 | 9.73425 | 24360 ft | 476 kts | 297° |
| 2026-04-22 18:28 | 50.84983 | 9.68669 | 24301 ft | 474 kts | 297° |
| 2026-04-22 18:29 | 50.86360 | 9.63986 | 24305 ft | 475 kts | 297° |
| 2026-04-22 18:29 | 50.87774 | 9.59170 | 24310 ft | 476 kts | 297° |
| 2026-04-22 18:29 | 50.89169 | 9.54411 | 24319 ft | 475 kts | 297° |
| 2026-04-22 18:29 | 50.90541 | 9.49717 | 24321 ft | 476 kts | 297° |
| 2026-04-22 18:30 | 50.91953 | 9.44876 | 24200 ft | 477 kts | 297° |
| 2026-04-22 18:30 | 50.94707 | 9.35404 | 22798 ft | 469 kts | 297° |
| 2026-04-22 18:30 | 50.96040 | 9.30791 | 21979 ft | 451 kts | 297° |
| 2026-04-22 18:31 | 50.97313 | 9.26370 | 21183 ft | 435 kts | 297° |
| 2026-04-22 18:31 | 50.98539 | 9.22105 | 20390 ft | 422 kts | 297° |
| 2026-04-22 18:31 | 50.99735 | 9.17943 | 19552 ft | 410 kts | 297° |
| 2026-04-22 18:31 | 51.00909 | 9.13858 | 18660 ft | 401 kts | 297° |
| 2026-04-22 18:32 | 51.02050 | 9.09884 | 17772 ft | 393 kts | 298° |
| 2026-04-22 18:32 | 51.03170 | 9.05983 | 16902 ft | 385 kts | 297° |
| 2026-04-22 18:32 | 51.04065 | 9.02028 | 16214 ft | 376 kts | 284° |
| 2026-04-22 18:32 | 51.04153 | 8.97984 | 15900 ft | 361 kts | 266° |
| 2026-04-22 18:33 | 51.03804 | 8.94096 | 15498 ft | 346 kts | 263° |
| 2026-04-22 18:33 | 51.03384 | 8.90414 | 15129 ft | 331 kts | 262° |
| 2026-04-22 18:33 | 51.02980 | 8.86930 | 14782 ft | 318 kts | 263° |
| 2026-04-22 18:33 | 51.02603 | 8.83485 | 14422 ft | 306 kts | 264° |
| 2026-04-22 18:34 | 51.02270 | 8.80238 | 14107 ft | 297 kts | 264° |
| 2026-04-22 18:34 | 51.01956 | 8.77019 | 13732 ft | 294 kts | 265° |
| 2026-04-22 18:34 | 51.01648 | 8.73801 | 13371 ft | 292 kts | 265° |
| 2026-04-22 18:34 | 51.01339 | 8.70575 | 13005 ft | 290 kts | 264° |
| 2026-04-22 18:35 | 51.01040 | 8.67456 | 12655 ft | 289 kts | 264° |
| 2026-04-22 18:35 | 51.00730 | 8.64264 | 12295 ft | 287 kts | 264° |
| 2026-04-22 18:35 | 51.00429 | 8.61173 | 11945 ft | 286 kts | 264° |
| 2026-04-22 18:35 | 51.00122 | 8.58038 | 11588 ft | 285 kts | 264° |
| 2026-04-22 18:36 | 50.99817 | 8.54922 | 11230 ft | 284 kts | 264° |
| 2026-04-22 18:36 | 50.99514 | 8.51852 | 10878 ft | 283 kts | 264° |
| 2026-04-22 18:36 | 50.99212 | 8.48786 | 10527 ft | 282 kts | 264° |
| 2026-04-22 18:36 | 50.98908 | 8.45713 | 10314 ft | 275 kts | 264° |
| 2026-04-22 18:37 | 50.98614 | 8.42768 | 10319 ft | 267 kts | 264° |
| 2026-04-22 18:37 | 50.98325 | 8.39853 | 10315 ft | 269 kts | 264° |
| 2026-04-22 18:37 | 50.98127 | 8.37864 | 10317 ft | 268 kts | 264° |
| 2026-04-22 18:37 | 50.97736 | 8.33914 | 10327 ft | 288 kts | 263° |
| 2026-04-22 18:38 | 50.97417 | 8.30691 | 10312 ft | 300 kts | 263° |
| 2026-04-22 18:38 | 50.97000 | 8.27422 | 10300 ft | 304 kts | 255° |
| 2026-04-22 18:38 | 50.96290 | 8.24258 | 10306 ft | 305 kts | 248° |
| 2026-04-22 18:39 | 50.94541 | 8.18115 | 10303 ft | 306 kts | 246° |
| 2026-04-22 18:39 | 50.93652 | 8.15015 | 10309 ft | 306 kts | 247° |
| 2026-04-22 18:39 | 50.92791 | 8.11931 | 10297 ft | 305 kts | 248° |
| 2026-04-22 18:39 | 50.91939 | 8.08830 | 10305 ft | 306 kts | 248° |
| 2026-04-22 18:40 | 50.91220 | 8.05706 | 10313 ft | 305 kts | 257° |
| 2026-04-22 18:40 | 50.90781 | 8.02403 | 10311 ft | 304 kts | 262° |
| 2026-04-22 18:40 | 50.90438 | 7.99092 | 10308 ft | 302 kts | 263° |
| 2026-04-22 18:40 | 50.90122 | 7.95823 | 10299 ft | 302 kts | 263° |
| 2026-04-22 18:41 | 50.89810 | 7.92537 | 10315 ft | 303 kts | 263° |
| 2026-04-22 18:41 | 50.89496 | 7.89217 | 10304 ft | 302 kts | 263° |
| 2026-04-22 18:41 | 50.89186 | 7.85936 | 10321 ft | 303 kts | 263° |
| 2026-04-22 18:41 | 50.88872 | 7.82605 | 10324 ft | 304 kts | 263° |
| 2026-04-22 18:42 | 50.88559 | 7.79282 | 10325 ft | 304 kts | 264° |
| 2026-04-22 18:42 | 50.88247 | 7.75985 | 10326 ft | 304 kts | 264° |
| 2026-04-22 18:42 | 50.87932 | 7.72683 | 10327 ft | 304 kts | 264° |
| 2026-04-22 18:42 | 50.87611 | 7.69349 | 10324 ft | 305 kts | 264° |
| 2026-04-22 18:43 | 50.87290 | 7.66029 | 10324 ft | 304 kts | 264° |
| 2026-04-22 18:43 | 50.86971 | 7.62722 | 10323 ft | 304 kts | 263° |
| 2026-04-22 18:43 | 50.86656 | 7.59444 | 10320 ft | 304 kts | 264° |
| 2026-04-22 18:43 | 50.86555 | 7.56098 | 10314 ft | 297 kts | 281° |
| 2026-04-22 18:44 | 50.87116 | 7.53084 | 10322 ft | 276 kts | 299° |
| 2026-04-22 18:44 | 50.87964 | 7.50478 | 10315 ft | 261 kts | 303° |
| 2026-04-22 18:44 | 50.88843 | 7.47985 | 10310 ft | 260 kts | 304° |
| 2026-04-22 18:44 | 50.89748 | 7.45442 | 10312 ft | 262 kts | 304° |
| 2026-04-22 18:45 | 50.90639 | 7.42944 | 10311 ft | 262 kts | 303° |
| 2026-04-22 18:45 | 50.91540 | 7.40412 | 10312 ft | 261 kts | 304° |
| 2026-04-22 18:45 | 50.92429 | 7.37913 | 10275 ft | 260 kts | 304° |
| 2026-04-22 18:45 | 50.93304 | 7.35449 | 10018 ft | 257 kts | 304° |
| 2026-04-22 18:46 | 50.94195 | 7.32945 | 9543 ft | 260 kts | 303° |
| 2026-04-22 18:46 | 50.95081 | 7.30468 | 9089 ft | 258 kts | 303° |
| 2026-04-22 18:46 | 50.96012 | 7.28080 | 8662 ft | 255 kts | 309° |
| 2026-04-22 18:46 | 50.97082 | 7.25879 | 8350 ft | 252 kts | 312° |
| 2026-04-22 18:47 | 50.98202 | 7.23717 | 8035 ft | 251 kts | 313° |
| 2026-04-22 18:47 | 50.99307 | 7.21612 | 7733 ft | 250 kts | 313° |
| 2026-04-22 18:47 | 51.00426 | 7.19490 | 7438 ft | 249 kts | 313° |
| 2026-04-22 18:47 | 51.01526 | 7.17407 | 7143 ft | 247 kts | 313° |
| 2026-04-22 18:48 | 51.02628 | 7.15322 | 6849 ft | 246 kts | 313° |
| 2026-04-22 18:48 | 51.03724 | 7.13258 | 6551 ft | 245 kts | 313° |
| 2026-04-22 18:48 | 51.04823 | 7.11191 | 6276 ft | 243 kts | 313° |
| 2026-04-22 18:48 | 51.05921 | 7.09136 | 5949 ft | 243 kts | 313° |
| 2026-04-22 18:49 | 51.07000 | 7.07118 | 5635 ft | 243 kts | 312° |
| 2026-04-22 18:49 | 51.07836 | 7.04759 | 5308 ft | 247 kts | 285° |
| 2026-04-22 18:49 | 51.07874 | 7.02046 | 5029 ft | 247 kts | 258° |
| 2026-04-22 18:49 | 51.07245 | 6.99574 | 4977 ft | 242 kts | 233° |
| 2026-04-22 18:50 | 51.06148 | 6.97575 | 4721 ft | 241 kts | 224° |
| 2026-04-22 18:50 | 51.04972 | 6.95727 | 4512 ft | 234 kts | 223° |
| 2026-04-22 18:50 | 51.03814 | 6.93967 | 4391 ft | 222 kts | 217° |
| 2026-04-22 18:50 | 51.02482 | 6.92973 | 4270 ft | 206 kts | 184° |
| 2026-04-22 18:51 | 51.01118 | 6.93285 | 3928 ft | 202 kts | 149° |
| 2026-04-22 18:51 | 51.00118 | 6.94806 | 3562 ft | 199 kts | 120° |
| 2026-04-22 18:51 | 50.99316 | 6.96574 | 3270 ft | 194 kts | 131° |
| 2026-04-22 18:51 | 50.98360 | 6.98006 | 3017 ft | 188 kts | 136° |
| 2026-04-22 18:52 | 50.97374 | 6.99368 | 2741 ft | 187 kts | 135° |
| 2026-04-22 18:52 | 50.96418 | 7.00760 | 2485 ft | 184 kts | 133° |
| 2026-04-22 18:52 | 50.95491 | 7.02123 | 2234 ft | 183 kts | 134° |
| 2026-04-22 18:52 | 50.94559 | 7.03473 | 1988 ft | 181 kts | 133° |
| 2026-04-22 18:53 | 50.93637 | 7.04813 | 1744 ft | 180 kts | 133° |
| 2026-04-22 18:53 | 50.92707 | 7.06164 | 1497 ft | 178 kts | 133° |
| 2026-04-22 18:53 | 50.91807 | 7.07468 | 1255 ft | 175 kts | 133° |
| 2026-04-22 18:53 | 50.90942 | 7.08721 | 1024 ft | 163 kts | 133° |
| 2026-04-22 18:54 | 50.90148 | 7.09873 | 833 ft | 152 kts | 133° |
| 2026-04-22 18:54 | 50.89378 | 7.10992 | 627 ft | 150 kts | 134° |
| 2026-04-22 18:54 | 50.88609 | 7.12110 | 431 ft | 150 kts | 134° |
| 2026-04-22 18:54 | 50.87843 | 7.13209 | 262 ft | 149 kts | 134° |
| 2026-04-22 18:55 | 50.87200 | 7.14148 | 251 ft | 88 kts | 140° |
| 2026-04-22 18:55 | 50.86824 | 7.14684 | 267 ft | 71 kts | 137° |
| 2026-04-22 18:55 | 50.86483 | 7.15168 | 280 ft | 56 kts | 145° |
| 2026-04-22 18:55 | 50.86242 | 7.15327 | 285 ft | 19 kts | 167° |
| 2026-04-22 18:56 | 50.86227 | 7.15333 | 285 ft | 0 kts | 167° |
| 2026-04-22 18:56 | 50.86225 | 7.15334 | 285 ft | 2 kts | 167° |
| 2026-04-22 18:56 | 50.86142 | 7.15358 | 285 ft | 20 kts | 181° |
| 2026-04-22 18:56 | 50.86042 | 7.15213 | 282 ft | 21 kts | 263° |
| 2026-04-22 18:57 | 50.86109 | 7.15038 | 279 ft | 15 kts | 317° |
| 2026-04-22 18:57 | 50.86192 | 7.14921 | 276 ft | 16 kts | 319° |
| 2026-04-22 18:57 | 50.86282 | 7.14798 | 274 ft | 17 kts | 320° |
| 2026-04-22 18:57 | 50.86372 | 7.14660 | 271 ft | 18 kts | 316° |
| 2026-04-22 18:58 | 50.86467 | 7.14521 | 268 ft | 19 kts | 317° |
| 2026-04-22 18:58 | 50.86570 | 7.14371 | 264 ft | 20 kts | 318° |
| 2026-04-22 18:58 | 50.86673 | 7.14222 | 261 ft | 20 kts | 316° |
| 2026-04-22 18:58 | 50.86783 | 7.14113 | 256 ft | 18 kts | 330° |
| 2026-04-22 18:59 | 50.86881 | 7.13980 | 253 ft | 19 kts | 318° |
| 2026-04-22 18:59 | 50.86986 | 7.13832 | 249 ft | 21 kts | 319° |
| 2026-04-22 18:59 | 50.87093 | 7.13674 | 245 ft | 20 kts | 317° |
| 2026-04-22 18:59 | 50.87196 | 7.13529 | 242 ft | 15 kts | 318° |
| 2026-04-22 19:00 | 50.87238 | 7.13466 | 241 ft | 10 kts | 316° |
| 2026-04-22 19:00 | 50.87249 | 7.13450 | 240 ft | 0 kts | 317° |